createdAt,value
2023-01-17T00:02:01.337Z,6.30
2023-01-17T00:04:47.441Z,5.60
2023-01-17T00:07:35.082Z,4.23
2023-01-17T00:10:07.492Z,4.70
2023-01-17T00:12:36.725Z,7.77
2023-01-17T00:15:08.414Z,5.07
2023-01-17T00:17:36.700Z,10.47
2023-01-17T00:20:23.206Z,3.53
2023-01-17T00:23:08.901Z,5.93
2023-01-17T00:25:57.466Z,5.93
2023-01-17T00:28:25.659Z,10.37
2023-01-17T00:30:54.313Z,7.47
2023-01-17T00:33:22.450Z,4.57
2023-01-17T00:35:50.665Z,7.87
2023-01-17T00:38:19.526Z,6.87
2023-01-17T00:40:47.826Z,6.03
2023-01-17T00:43:35.213Z,6.77
2023-01-17T00:46:22.824Z,7.70
2023-01-17T00:49:09.045Z,8.33
2023-01-17T00:51:55.797Z,11.00
2023-01-17T00:54:41.412Z,10.17
2023-01-17T00:57:27.213Z,8.83
2023-01-17T01:00:12.802Z,9.33
2023-01-17T01:03:00.273Z,8.60
2023-01-17T01:05:46.291Z,7.73
2023-01-17T01:08:39.408Z,9.63
2023-01-17T01:11:27.003Z,7.67
2023-01-17T01:14:13.182Z,9.33
2023-01-17T01:16:58.985Z,8.07
2023-01-17T01:19:46.253Z,10.57
2023-01-17T01:22:32.394Z,9.23
2023-01-17T01:25:18.790Z,11.27
2023-01-17T01:28:04.387Z,8.67
2023-01-17T01:30:50.469Z,13.03
2023-01-17T01:33:20.204Z,8.77
2023-01-17T01:35:51.856Z,10.10
2023-01-17T01:38:21.154Z,11.67
2023-01-17T01:40:52.296Z,13.27
2023-01-17T01:43:23.377Z,12.80
2023-01-17T01:45:57.461Z,11.27
2023-01-17T01:48:36.715Z,10.30
2023-01-17T01:51:10.966Z,9.60
2023-01-17T01:53:46.617Z,9.27
2023-01-17T01:56:16.510Z,12.77
2023-01-17T01:58:50.164Z,11.80
2023-01-17T02:01:19.688Z,12.87
2023-01-17T02:03:49.126Z,13.03
2023-01-17T02:06:29.991Z,14.83
2023-01-17T02:09:01.376Z,17.87
2023-01-17T02:11:29.763Z,15.47
2023-01-17T02:13:58.103Z,9.73
2023-01-17T02:16:43.080Z,13.13
2023-01-17T02:19:38.469Z,14.37
2023-01-17T02:22:27.009Z,15.27
2023-01-17T02:25:24.006Z,14.37
2023-01-17T02:28:06.054Z,10.37
2023-01-17T02:30:38.313Z,12.70
2023-01-17T02:33:26.295Z,9.50
2023-01-17T02:36:07.082Z,11.63
2023-01-17T02:38:45.052Z,8.80
2023-01-17T02:41:20.313Z,13.30
2023-01-17T02:43:51.444Z,9.37
2023-01-17T02:46:21.282Z,11.30
2023-01-17T02:48:51.471Z,16.37
2023-01-17T02:51:48.387Z,14.20
2023-01-17T02:54:35.561Z,13.17
2023-01-17T02:57:20.843Z,15.23
2023-01-17T02:59:56.366Z,17.53
2023-01-17T03:02:36.151Z,8.90
2023-01-17T03:05:10.316Z,13.50
2023-01-17T03:07:41.781Z,12.27
2023-01-17T03:10:12.722Z,9.70
2023-01-17T03:12:41.742Z,15.03
2023-01-17T03:15:13.001Z,7.83
2023-01-17T03:17:47.758Z,12.60
2023-01-17T03:20:16.623Z,10.73
2023-01-17T03:22:44.888Z,10.13
2023-01-17T03:25:13.376Z,12.77
2023-01-17T03:27:42.501Z,12.17
2023-01-17T03:30:11.903Z,12.87
2023-01-17T03:32:40.316Z,12.90
2023-01-17T03:35:10.955Z,11.57
2023-01-17T03:37:39.314Z,10.67
2023-01-17T03:40:08.745Z,9.30
2023-01-17T03:42:37.162Z,9.83
2023-01-17T03:45:06.335Z,15.10
2023-01-17T03:47:36.288Z,12.57
2023-01-17T03:50:04.879Z,11.17
2023-01-17T03:52:34.672Z,10.97
2023-01-17T03:55:03.572Z,8.63
2023-01-17T03:57:31.968Z,16.20
2023-01-17T04:00:00.463Z,12.50
2023-01-17T04:02:28.889Z,12.17
2023-01-17T04:04:57.239Z,17.03
2023-01-17T04:07:25.705Z,11.40
2023-01-17T04:09:55.479Z,17.67
2023-01-17T04:12:23.908Z,14.00
2023-01-17T04:14:52.512Z,13.00
2023-01-17T04:17:21.663Z,16.13
2023-01-17T04:19:50.064Z,15.87
2023-01-17T04:22:18.445Z,18.97
2023-01-17T04:24:46.848Z,16.27
2023-01-17T04:27:16.536Z,18.50
2023-01-17T04:29:46.729Z,22.23
2023-01-17T04:32:15.886Z,18.53
2023-01-17T04:34:44.300Z,22.23
2023-01-17T04:37:12.706Z,16.87
2023-01-17T04:39:41.063Z,17.93
2023-01-17T04:42:09.455Z,18.93
2023-01-17T04:44:40.302Z,19.33
2023-01-17T04:47:08.685Z,17.70
2023-01-17T04:49:37.075Z,21.87
2023-01-17T04:52:05.807Z,18.80
2023-01-17T04:54:34.139Z,16.17
2023-01-17T04:57:02.571Z,24.17
2023-01-17T04:59:30.874Z,20.90
2023-01-17T05:02:00.707Z,22.43
2023-01-17T05:04:29.077Z,21.97
2023-01-17T05:06:57.408Z,21.67
2023-01-17T05:09:25.834Z,19.63
2023-01-17T05:11:55.716Z,24.67
2023-01-17T05:14:26.326Z,18.97
2023-01-17T05:16:54.922Z,19.00
2023-01-17T05:19:25.255Z,20.83
2023-01-17T05:21:53.703Z,21.30
2023-01-17T05:24:22.315Z,21.27
2023-01-17T05:26:54.710Z,20.47
2023-01-17T05:29:23.276Z,20.40
2023-01-17T05:31:51.678Z,19.33
2023-01-17T05:34:20.031Z,20.90
2023-01-17T05:36:49.805Z,26.43
2023-01-17T05:39:18.154Z,40.80
2023-01-17T05:41:46.523Z,57.80
2023-01-17T05:44:15.652Z,45.23
2023-01-17T05:46:44.179Z,201.17
2023-01-17T05:49:12.558Z,64.97
2023-01-17T05:51:40.944Z,66.93
2023-01-17T05:54:10.798Z,69.60
2023-01-17T05:56:39.167Z,26.50
2023-01-17T05:59:07.507Z,25.97
2023-01-17T06:01:36.055Z,24.67
2023-01-17T06:04:04.541Z,28.70
2023-01-17T06:06:32.902Z,32.60
2023-01-17T06:09:01.328Z,56.00
2023-01-17T06:11:31.996Z,59.57
2023-01-17T06:14:00.368Z,29.07
2023-01-17T06:16:28.777Z,37.43
2023-01-17T06:18:57.148Z,57.03
2023-01-17T06:21:25.691Z,42.37
2023-01-17T06:23:56.449Z,27.73
2023-01-17T06:26:24.788Z,32.80
2023-01-17T06:28:54.827Z,36.83
2023-01-17T06:31:23.256Z,49.77
2023-01-17T06:33:51.585Z,37.97
2023-01-17T06:36:20.156Z,44.63
2023-01-17T06:38:51.516Z,35.73
2023-01-17T06:41:19.902Z,31.07
2023-01-17T06:43:48.310Z,35.00
2023-01-17T06:46:18.059Z,53.83
2023-01-17T06:48:48.337Z,50.83
2023-01-17T06:51:17.364Z,44.73
2023-01-17T06:53:45.810Z,45.10
2023-01-17T06:56:14.118Z,31.30
2023-01-17T06:58:42.545Z,35.53
2023-01-17T07:01:12.656Z,39.87
2023-01-17T07:03:42.825Z,36.87
2023-01-17T07:06:11.508Z,35.70
2023-01-17T07:08:39.848Z,34.57
2023-01-17T07:11:09.327Z,32.67
2023-01-17T07:13:38.623Z,29.97
2023-01-17T07:16:07.785Z,33.47
2023-01-17T07:18:36.325Z,37.13
2023-01-17T07:21:06.421Z,43.67
2023-01-17T07:23:34.944Z,39.07
2023-01-17T07:26:03.455Z,39.57
2023-01-17T07:28:31.846Z,37.57
2023-01-17T07:31:00.374Z,38.00
2023-01-17T07:33:28.727Z,45.33
2023-01-17T07:35:57.068Z,40.60
2023-01-17T07:38:26.837Z,39.77
2023-01-17T07:40:59.942Z,45.53
2023-01-17T07:43:28.525Z,38.87
2023-01-17T07:45:56.972Z,42.93
2023-01-17T07:48:26.690Z,51.33
2023-01-17T07:50:56.717Z,54.57
2023-01-17T07:53:27.403Z,52.57
2023-01-17T07:55:56.124Z,58.27
2023-01-17T07:58:24.463Z,63.30
2023-01-17T08:00:52.906Z,58.60
2023-01-17T08:03:21.603Z,62.13
2023-01-17T08:05:56.232Z,65.07
2023-01-17T08:08:26.435Z,70.20
2023-01-17T08:10:54.969Z,60.90
2023-01-17T08:13:23.750Z,59.17
2023-01-17T08:15:54.520Z,53.57
2023-01-17T08:18:22.973Z,73.73
2023-01-17T08:20:51.339Z,51.83
2023-01-17T08:23:19.634Z,49.00
2023-01-17T08:25:49.389Z,51.67
2023-01-17T08:28:17.908Z,53.63
2023-01-17T08:30:46.280Z,51.73
2023-01-17T08:33:14.604Z,53.20
2023-01-17T08:35:52.704Z,52.10
2023-01-17T08:38:21.096Z,49.93
2023-01-17T08:40:50.925Z,51.20
2023-01-17T08:43:19.857Z,51.93
2023-01-17T08:45:48.957Z,53.73
2023-01-17T08:48:17.385Z,46.07
2023-01-17T08:50:46.324Z,49.63
2023-01-17T08:53:14.667Z,54.63
2023-01-17T08:55:43.083Z,54.23
2023-01-17T08:58:13.022Z,48.03
2023-01-17T09:00:41.445Z,51.93
2023-01-17T09:03:14.505Z,41.33
2023-01-17T09:05:42.944Z,47.03
2023-01-17T09:08:11.354Z,41.43
2023-01-17T09:10:39.639Z,37.93
2023-01-17T09:13:08.683Z,35.70
2023-01-17T09:15:38.408Z,44.37
2023-01-17T09:18:44.166Z,35.23
2023-01-17T09:21:13.386Z,36.67
2023-01-17T09:23:42.456Z,35.93
2023-01-17T09:26:19.296Z,33.93
2023-01-17T09:28:47.729Z,33.03
2023-01-17T09:31:18.060Z,34.97
2023-01-17T09:33:46.410Z,30.13
2023-01-17T09:36:14.815Z,29.53
2023-01-17T09:38:43.502Z,29.03
2023-01-17T09:41:28.578Z,35.03
2023-01-17T09:44:03.960Z,36.13
2023-01-17T09:46:38.787Z,28.17
2023-01-17T09:49:10.167Z,33.00
2023-01-17T09:51:38.723Z,30.90
2023-01-17T09:54:07.320Z,30.97
2023-01-17T09:56:40.736Z,29.43
2023-01-17T09:59:33.201Z,31.30
2023-01-17T10:02:17.152Z,25.43
2023-01-17T10:05:03.420Z,29.00
2023-01-17T10:07:40.767Z,30.23
2023-01-17T10:10:23.139Z,24.53
2023-01-17T10:12:57.484Z,26.57
2023-01-17T10:15:58.971Z,22.30
2023-01-17T10:18:59.057Z,21.30
2023-01-17T10:21:41.431Z,21.00
2023-01-17T10:24:23.646Z,22.77
2023-01-17T10:26:57.342Z,22.93
2023-01-17T10:29:30.102Z,20.90
2023-01-17T10:32:01.626Z,18.03
2023-01-17T10:34:37.450Z,20.43
2023-01-17T10:37:17.319Z,20.93
2023-01-17T10:39:48.748Z,18.80
2023-01-17T10:42:23.323Z,16.83
2023-01-17T10:44:56.589Z,16.23
2023-01-17T10:47:27.994Z,12.23
2023-01-17T10:49:59.553Z,16.80
2023-01-17T10:52:38.236Z,13.23
2023-01-17T10:55:22.013Z,11.93
2023-01-17T10:57:51.582Z,8.27
2023-01-17T11:00:40.023Z,13.47
2023-01-17T11:03:10.934Z,10.47
2023-01-17T11:05:42.943Z,11.10
2023-01-17T11:08:13.531Z,12.13
2023-01-17T11:10:44.968Z,8.40
2023-01-17T11:13:26.160Z,11.60
2023-01-17T11:15:57.915Z,10.23
2023-01-17T11:18:29.092Z,10.03
2023-01-17T11:21:12.285Z,10.80
2023-01-17T11:23:43.122Z,13.03
2023-01-17T11:26:21.522Z,9.57
2023-01-17T11:28:51.889Z,15.90
2023-01-17T11:31:30.712Z,11.83
2023-01-17T11:34:15.340Z,11.77
2023-01-17T11:36:45.930Z,8.93
2023-01-17T11:39:27.735Z,9.90
2023-01-17T11:41:56.584Z,7.60
2023-01-17T11:44:27.348Z,11.70
2023-01-17T11:47:10.999Z,13.50
2023-01-17T11:49:40.499Z,16.23
2023-01-17T11:52:12.109Z,8.07
2023-01-17T11:54:42.626Z,8.63
2023-01-17T11:57:22.197Z,8.10
2023-01-17T11:59:52.614Z,8.67
2023-01-17T12:03:00.936Z,9.53
2023-01-17T12:05:48.286Z,9.57
2023-01-17T12:08:30.533Z,8.03
2023-01-17T12:11:08.135Z,10.50
2023-01-17T12:14:03.425Z,6.70
2023-01-17T12:16:56.837Z,9.47
2023-01-17T12:19:48.945Z,10.67
2023-01-17T12:22:33.810Z,8.23
2023-01-17T12:25:25.771Z,6.43
2023-01-17T12:28:17.639Z,7.23
2023-01-17T12:31:07.010Z,10.90
2023-01-17T12:33:43.595Z,4.87
2023-01-17T12:36:30.839Z,8.20
2023-01-17T12:39:03.255Z,11.60
2023-01-17T12:41:40.217Z,6.00
2023-01-17T12:44:15.335Z,8.67
2023-01-17T12:46:49.536Z,6.60
2023-01-17T12:49:30.061Z,7.57
2023-01-17T12:52:06.549Z,11.23
2023-01-17T12:54:40.333Z,9.80
2023-01-17T12:57:16.554Z,5.73
2023-01-17T12:59:52.490Z,8.10
2023-01-17T13:02:31.334Z,3.73
2023-01-17T13:05:08.849Z,2.37
2023-01-17T13:07:45.606Z,4.13
2023-01-17T13:10:27.467Z,3.63
2023-01-17T13:13:02.244Z,3.93
2023-01-17T13:15:38.637Z,3.33
2023-01-17T13:18:11.964Z,3.20
2023-01-17T13:20:57.910Z,3.07
2023-01-17T13:23:32.300Z,5.50
2023-01-17T13:26:02.035Z,3.27
2023-01-17T13:28:43.469Z,2.10
2023-01-17T13:31:34.332Z,3.47
2023-01-17T13:34:16.865Z,4.97
2023-01-17T13:36:57.862Z,3.17
2023-01-17T13:39:52.488Z,4.47
2023-01-17T13:42:26.694Z,5.65
2023-01-17T13:44:57.994Z,8.63
2023-01-17T13:47:43.035Z,4.87
2023-01-17T13:50:46.980Z,7.23
2023-01-17T13:53:57.823Z,3.00
2023-01-17T13:56:37.031Z,4.13
2023-01-17T13:59:28.517Z,5.50
2023-01-17T14:01:58.804Z,5.20
2023-01-17T14:05:11.327Z,3.07
2023-01-17T14:07:47.754Z,10.53
2023-01-17T14:10:31.490Z,2.43
2023-01-17T14:13:00.913Z,2.63
2023-01-17T14:15:32.585Z,3.40
2023-01-17T14:18:03.987Z,6.70
2023-01-17T14:21:05.307Z,3.13
2023-01-17T14:24:01.312Z,3.07
2023-01-17T14:26:58.967Z,3.10
2023-01-17T14:29:48.841Z,13.93
2023-01-17T14:32:20.137Z,1.23
2023-01-17T14:34:51.768Z,2.73
2023-01-17T14:37:31.786Z,6.47
2023-01-17T14:40:02.172Z,9.37
2023-01-17T14:42:32.306Z,7.23
2023-01-17T14:45:04.176Z,13.17
2023-01-17T14:47:35.320Z,8.17
2023-01-17T14:50:20.142Z,13.27
2023-01-17T14:52:48.743Z,21.33
2023-01-17T14:55:19.469Z,5.90
2023-01-17T14:57:56.658Z,15.13
2023-01-17T15:00:29.325Z,9.13
2023-01-17T15:03:00.143Z,27.03
2023-01-17T15:05:31.382Z,22.23
2023-01-17T15:08:00.281Z,10.13
2023-01-17T15:10:32.485Z,20.13
2023-01-17T15:13:09.016Z,25.77
2023-01-17T15:15:39.978Z,22.87
2023-01-17T15:18:29.450Z,37.70
2023-01-17T15:21:03.601Z,7.97
2023-01-17T15:23:35.252Z,6.70
2023-01-17T15:26:07.520Z,15.63
2023-01-17T15:28:36.682Z,7.97
2023-01-17T15:31:10.365Z,9.87
2023-01-17T15:33:41.488Z,11.50
2023-01-17T15:36:18.150Z,8.03
2023-01-17T15:38:53.824Z,4.30
2023-01-17T15:41:24.824Z,7.47
2023-01-17T15:43:57.536Z,4.13
2023-01-17T15:46:31.600Z,4.27
2023-01-17T15:49:18.405Z,11.03
2023-01-17T15:51:56.495Z,18.57
2023-01-17T15:54:36.779Z,9.07
2023-01-17T15:57:18.113Z,8.23
2023-01-17T15:59:49.163Z,8.47
2023-01-17T16:02:42.979Z,12.20
2023-01-17T16:05:41.940Z,6.90
2023-01-17T16:08:31.646Z,9.23
2023-01-17T16:11:02.933Z,6.40
2023-01-17T16:13:32.786Z,9.43
2023-01-17T16:16:19.241Z,8.50
2023-01-17T16:18:49.167Z,11.63
2023-01-17T16:21:23.898Z,7.80
2023-01-17T16:23:54.130Z,12.70
2023-01-17T16:26:22.579Z,11.33
2023-01-17T16:28:51.629Z,13.83
2023-01-17T16:31:20.087Z,13.93
2023-01-17T16:33:51.194Z,17.20
2023-01-17T16:36:21.247Z,16.80
2023-01-17T16:38:52.491Z,14.93
2023-01-17T16:41:22.662Z,13.57
2023-01-17T16:44:02.887Z,14.30
2023-01-17T16:46:31.572Z,13.20
2023-01-17T16:49:01.664Z,16.17
2023-01-17T16:51:30.202Z,20.23
2023-01-17T16:53:58.690Z,47.60
2023-01-17T16:56:28.540Z,56.43
2023-01-17T16:58:56.923Z,41.40
2023-01-17T17:01:25.615Z,30.20
2023-01-17T17:03:54.084Z,21.27
2023-01-17T17:06:22.407Z,20.63
2023-01-17T17:08:50.823Z,20.37
2023-01-17T17:11:20.405Z,18.13
2023-01-17T17:13:51.366Z,16.23
2023-01-17T17:16:21.999Z,19.30
2023-01-17T17:18:56.794Z,18.67
2023-01-17T17:21:25.294Z,19.03
2023-01-17T17:23:56.957Z,19.63
2023-01-17T17:26:27.531Z,20.50
2023-01-17T17:28:57.482Z,24.00
2023-01-17T17:31:26.232Z,20.57
2023-01-17T17:33:58.587Z,36.40
2023-01-17T17:36:26.984Z,24.97
2023-01-17T17:38:56.680Z,37.57
2023-01-17T17:41:26.782Z,49.60
2023-01-17T17:43:57.233Z,35.37
2023-01-17T17:46:27.262Z,29.43
2023-01-17T17:48:56.120Z,25.70
2023-01-17T17:51:26.485Z,26.50
2023-01-17T17:53:55.753Z,26.03
2023-01-17T17:56:24.825Z,21.33
2023-01-17T17:58:53.791Z,19.33
2023-01-17T18:01:24.152Z,24.87
2023-01-17T18:03:52.926Z,25.23
2023-01-17T18:06:22.101Z,23.60
2023-01-17T18:08:52.201Z,25.33
2023-01-17T18:11:26.169Z,25.53
2023-01-17T18:13:56.478Z,23.93
2023-01-17T18:16:28.445Z,30.60
2023-01-17T18:18:59.437Z,34.77
2023-01-17T18:21:29.507Z,30.27
2023-01-17T18:23:59.877Z,28.67
2023-01-17T18:26:29.997Z,33.17
2023-01-17T18:29:00.130Z,35.37
2023-01-17T18:31:31.146Z,34.13
2023-01-17T18:34:01.251Z,38.80
2023-01-17T18:36:29.901Z,38.80
2023-01-17T18:38:58.799Z,38.67
2023-01-17T18:41:28.974Z,46.17
2023-01-17T18:43:57.680Z,50.03
2023-01-17T18:46:27.681Z,71.60
2023-01-17T18:48:58.559Z,61.33
2023-01-17T18:51:29.281Z,51.17
2023-01-17T18:53:58.140Z,61.47
2023-01-17T18:56:29.640Z,40.77
2023-01-17T18:58:58.404Z,57.63
2023-01-17T19:01:29.214Z,37.97
2023-01-17T19:04:00.533Z,36.90
2023-01-17T19:06:32.597Z,38.50
2023-01-17T19:09:01.644Z,38.43
2023-01-17T19:11:31.202Z,42.50
2023-01-17T19:13:59.532Z,35.93
2023-01-17T19:16:30.842Z,44.43
2023-01-17T19:19:04.874Z,51.03
2023-01-17T19:21:34.033Z,41.83
2023-01-17T19:24:05.832Z,41.47
2023-01-17T19:26:34.333Z,42.30
2023-01-17T19:29:04.421Z,41.17
2023-01-17T19:31:35.278Z,41.20
2023-01-17T19:34:05.680Z,40.50
2023-01-17T19:36:35.758Z,59.70
2023-01-17T19:39:06.702Z,42.13
2023-01-17T19:44:09.447Z,43.07
2023-01-17T19:46:38.908Z,42.37
2023-01-17T19:49:09.830Z,43.77
2023-01-17T19:51:39.536Z,46.80
2023-01-17T19:54:08.520Z,43.60
2023-01-17T19:56:38.970Z,48.80
2023-01-17T19:59:07.432Z,50.67
2023-01-17T20:01:36.434Z,49.43
2023-01-17T20:04:06.134Z,48.10
2023-01-17T20:06:37.265Z,53.03
2023-01-17T20:09:07.506Z,51.03
2023-01-17T20:11:36.172Z,53.63
2023-01-17T20:14:05.612Z,58.77
2023-01-17T20:16:36.022Z,59.87
2023-01-17T20:19:05.738Z,52.70
2023-01-17T20:21:35.465Z,53.83
2023-01-17T20:24:04.850Z,57.17
2023-01-17T20:26:37.597Z,55.70
2023-01-17T20:29:10.251Z,56.67
2023-01-17T20:31:39.543Z,57.10
2023-01-17T20:34:10.018Z,53.50
2023-01-17T20:36:41.274Z,51.57
2023-01-17T20:39:11.055Z,51.73
2023-01-17T20:41:41.205Z,48.80
2023-01-17T20:44:13.939Z,43.80
2023-01-17T20:46:43.636Z,60.60
2023-01-17T20:49:15.576Z,54.90
2023-01-17T20:51:46.220Z,53.73
2023-01-17T20:54:16.442Z,55.87
2023-01-17T20:56:47.563Z,55.27
2023-01-17T20:59:19.621Z,55.10
2023-01-17T21:01:48.471Z,59.13
2023-01-17T21:04:18.014Z,45.83
2023-01-17T21:06:46.563Z,44.30
2023-01-17T21:09:17.322Z,49.40
2023-01-17T21:11:45.740Z,43.80
2023-01-17T21:14:14.176Z,45.20
2023-01-17T21:16:44.754Z,42.07
2023-01-17T21:19:16.007Z,39.13
2023-01-17T21:21:44.441Z,42.10
2023-01-17T21:24:16.387Z,40.57
2023-01-17T21:26:46.695Z,41.87
2023-01-17T21:29:16.129Z,38.87
2023-01-17T21:31:46.145Z,45.33
2023-01-17T21:34:14.832Z,39.20
2023-01-17T21:36:44.257Z,41.50
2023-01-17T21:39:15.848Z,38.17
2023-01-17T21:41:46.750Z,39.83
2023-01-17T21:44:36.516Z,39.00
2023-01-17T21:47:07.185Z,34.53
2023-01-17T21:49:35.828Z,35.53
2023-01-17T21:52:20.635Z,39.87
2023-01-17T21:55:06.506Z,39.83
2023-01-17T21:57:52.427Z,41.17
2023-01-17T22:00:20.978Z,41.17
2023-01-17T22:02:50.747Z,35.23
2023-01-17T22:05:19.367Z,39.13
2023-01-17T22:08:01.783Z,38.73
2023-01-17T22:10:30.283Z,40.73
2023-01-17T22:12:58.645Z,48.13
2023-01-17T22:15:27.094Z,41.30
2023-01-17T22:17:57.133Z,38.50
2023-01-17T22:20:25.668Z,36.70
2023-01-17T22:22:55.918Z,46.40
2023-01-17T22:25:24.481Z,43.90
2023-01-17T22:27:52.960Z,42.87
2023-01-17T22:30:21.477Z,45.53
2023-01-17T22:32:49.907Z,38.00
2023-01-17T22:35:19.725Z,42.60
2023-01-17T22:37:48.054Z,40.00
2023-01-17T22:40:16.747Z,40.80
2023-01-17T22:42:45.123Z,42.10
2023-01-17T22:45:13.769Z,42.57
2023-01-17T22:47:42.143Z,43.73
2023-01-17T22:50:12.290Z,38.57
2023-01-17T22:52:42.352Z,41.37
2023-01-17T22:55:12.175Z,39.20
2023-01-17T22:57:40.583Z,41.50
2023-01-17T23:00:14.616Z,40.87
2023-01-17T23:02:44.323Z,41.70
2023-01-17T23:05:12.833Z,34.83
2023-01-17T23:07:45.283Z,41.83
2023-01-17T23:10:34.925Z,44.47
2023-01-17T23:13:03.287Z,75.17
2023-01-17T23:15:49.078Z,88.63
2023-01-17T23:18:35.032Z,60.43
2023-01-17T23:21:04.175Z,44.23
2023-01-17T23:23:34.699Z,45.47
2023-01-17T23:26:03.106Z,44.07
2023-01-17T23:28:30.441Z,47.50
2023-01-17T23:31:05.850Z,41.73
2023-01-17T23:33:34.250Z,43.93
2023-01-17T23:36:03.481Z,45.90
2023-01-17T23:38:34.005Z,41.00
2023-01-17T23:41:24.284Z,49.13
2023-01-17T23:43:53.635Z,48.37
2023-01-17T23:46:22.827Z,41.17
2023-01-17T23:48:51.258Z,50.13
2023-01-17T23:51:19.709Z,41.33
2023-01-17T23:53:48.122Z,47.80
2023-01-17T23:56:20.698Z,42.07
2023-01-17T23:58:49.099Z,53.87
